Wilson Lista — 8PRW — position and weather

sailwx.info

Track history (hours):
 
Tides and Currents Weather Stations Pressure Air Temp Water Temp Dewpoint Dewpoint Depression Visibility Wind Speed Wind Dir Waves Ship Positions

Wilson Lista

Last reported at 2016-May-03 19:31 UTC. Time now 2016-May-04 06:00 UTC.
Position N 63°49' E 011°03'.

Length 88 m; draft 3.7 m.

Type: Cargo ship. MMSI: 314188000.

Date/timePositionNaut miles runAvg speedWind from/ knotsBaromVisibWave heightAir tempDewpointWater temp
2016-May-03 19:31N 63°49' E 011°03'9 9.2
2016-May-03 18:34N 63°42' E 010°51'9 9.4
2016-May-03 17:34N 63°36' E 010°34'9 9.5
2016-May-03 16:34N 63°31' E 010°16'9 9.0
2016-May-03 15:33N 63°30' E 009°56'11 8.0
2016-May-03 14:08N 63°39' E 009°40'5 8.2
2016-May-03 13:33N 63°38' E 009°30'6 0.5
2016-May-03 01:04N 63°44' E 009°32'5 9.9
2016-May-03 00:34N 63°39' E 009°29'9 8.7
2016-May-02 23:33N 63°32' E 009°15'  
2016-Apr-30 09:30N 54°16' E 005°06'1010.5
2016-Apr-30 08:33N 54°06' E 005°07'1310.8
2016-Apr-30 07:19N 53°53' E 004°59'910.9
2016-Apr-30 06:29N 53°45' E 004°54'9410.4
2016-Apr-29 21:30N 52°19' E 003°52'1111.3
2016-Apr-29 20:33N 52°08' E 003°55'1010.4
2016-Apr-29 19:33N 51°59' E 004°03'10 9.8
2016-Apr-29 18:33N 51°54' E 004°17'5 4.7
2016-Apr-29 17:29N 51°54' E 004°25'0 0.0
2016-Apr-29 16:32N 51°54' E 004°25'0 0.0
2016-Apr-29 15:33N 51°54' E 004°25'0 0.0
2016-Apr-29 14:34N 51°54' E 004°25'0 0.0
2016-Apr-29 13:33N 51°54' E 004°25'0 0.0
2016-Apr-29 12:33N 51°54' E 004°25'0 0.0
2016-Apr-29 11:33N 51°54' E 004°25'0 0.0
2016-Apr-29 10:33N 51°54' E 004°25'0 0.0
2016-Apr-29 09:33N 51°54' E 004°25'0 0.0
2016-Apr-29 08:34N 51°54' E 004°25'0 0.1
2016-Apr-29 07:33N 51°54' E 004°25'10 9.9
2016-Apr-29 06:33N 51°57' E 004°10'1211.6
2016-Apr-29 05:33N 51°60' E 003°51'64 9.0
2016-Apr-28 22:22N 51°32' E 002°18'8 9.9
2016-Apr-28 21:33N 51°26' E 002°09'9 8.7
2016-Apr-28 20:34N 51°24' E 001°56'1110.6
2016-Apr-28 19:33N 51°28' E 001°40'1212.1
2016-Apr-28 18:33N 51°29' E 001°20'1412.6
2016-Apr-28 17:27N 51°29' E 000°58'1011.0
2016-Apr-28 16:33N 51°30' E 000°42'9 9.5
2016-Apr-28 15:34N 51°28' E 000°27'6 6.0
2016-Apr-28 14:34N 51°28' E 000°18'0 0.0
2016-Apr-28 13:34N 51°28' E 000°18'0 0.0
2016-Apr-28 12:34N 51°28' E 000°18'0 0.0
2016-Apr-28 11:34N 51°28' E 000°18'0 0.0
2016-Apr-28 10:34N 51°28' E 000°18'0 0.0
2016-Apr-28 09:34N 51°28' E 000°18'0 0.0
2016-Apr-28 08:34N 51°28' E 000°18'0 0.0
2016-Apr-28 07:34N 51°28' E 000°18'0 0.0
2016-Apr-28 06:34N 51°28' E 000°18'0 0.0
2016-Apr-28 05:34N 51°28' E 000°18'0 0.0
2016-Apr-28 04:34N 51°28' E 000°18'0 0.0
2016-Apr-28 03:34N 51°28' E 000°18'0 0.0
2016-Apr-28 02:34N 51°28' E 000°18'0 0.0
2016-Apr-28 01:34N 51°28' E 000°18'0 0.0
2016-Apr-28 00:34N 51°28' E 000°18'0 0.0
2016-Apr-27 23:34N 51°28' E 000°18'0 0.0
2016-Apr-27 22:33N 51°28' E 000°18'0 0.0
2016-Apr-27 21:34N 51°28' E 000°18'0 0.0
2016-Apr-27 20:34N 51°28' E 000°18'0 0.0
2016-Apr-27 19:34N 51°28' E 000°18'0 0.0
2016-Apr-27 18:34N 51°28' E 000°18'0 0.0
2016-Apr-27 17:34N 51°28' E 000°18'0 0.0
2016-Apr-27 16:34N 51°28' E 000°18'0 0.0
2016-Apr-27 15:34N 51°28' E 000°18'0 0.0
2016-Apr-27 14:34N 51°28' E 000°18'0 0.0
2016-Apr-27 13:34N 51°28' E 000°18'0 0.0
2016-Apr-27 12:34N 51°28' E 000°18'0 0.0
2016-Apr-27 11:34N 51°28' E 000°18'0 0.0
2016-Apr-27 10:33N 51°28' E 000°18'0 0.0
2016-Apr-27 09:33N 51°28' E 000°18'0 0.0
2016-Apr-27 08:33N 51°28' E 000°18'0 0.0
2016-Apr-27 07:33N 51°28' E 000°18'0 0.0
2016-Apr-27 06:33N 51°28' E 000°18'0 0.0
2016-Apr-27 05:33N 51°28' E 000°18'0 0.0
2016-Apr-27 04:33N 51°28' E 000°18'0 0.0
2016-Apr-27 03:33N 51°28' E 000°18'0 0.0
2016-Apr-27 02:33N 51°28' E 000°18'0 0.0
2016-Apr-27 01:33N 51°28' E 000°18'0 0.0
2016-Apr-27 00:33N 51°28' E 000°18'0 0.0
2016-Apr-26 23:33N 51°28' E 000°18'0 0.0
2016-Apr-26 22:33N 51°28' E 000°18'0 0.0
2016-Apr-26 21:33N 51°28' E 000°18'0 0.0
2016-Apr-26 20:33N 51°28' E 000°18'0 0.0
2016-Apr-26 19:34N 51°28' E 000°18'0 0.0
2016-Apr-26 18:33N 51°28' E 000°18'0 0.0
2016-Apr-26 17:33N 51°28' E 000°18'0 0.0
2016-Apr-26 16:33N 51°28' E 000°18'0 0.0
2016-Apr-26 15:33N 51°28' E 000°18'0 0.0
2016-Apr-26 14:34N 51°28' E 000°18'0 0.0
2016-Apr-26 13:33N 51°28' E 000°18'0 0.0
2016-Apr-26 12:34N 51°28' E 000°18'0 0.0
2016-Apr-26 11:33N 51°28' E 000°18'0 0.0
2016-Apr-26 10:33N 51°28' E 000°18'0 0.0
2016-Apr-26 09:34N 51°28' E 000°18'0 0.0
2016-Apr-26 08:33N 51°28' E 000°18'0 0.0
2016-Apr-26 07:33N 51°28' E 000°18'0 0.0
2016-Apr-26 06:33N 51°28' E 000°18'0 0.0
2016-Apr-26 05:34N 51°28' E 000°18'0 0.0
2016-Apr-26 04:33N 51°28' E 000°18'0 0.0
2016-Apr-26 03:33N 51°28' E 000°18'0 0.0
2016-Apr-26 02:33N 51°28' E 000°18'0 0.0
2016-Apr-26 01:33N 51°28' E 000°18'0 0.0
2016-Apr-26 00:33N 51°28' E 000°18'0 0.0
2016-Apr-25 23:34N 51°28' E 000°18'0 0.0
2016-Apr-25 22:33N 51°28' E 000°18'0 0.0
2016-Apr-25 21:34N 51°28' E 000°18'0 0.0
2016-Apr-25 20:34N 51°28' E 000°18'0 0.0
2016-Apr-25 19:34N 51°28' E 000°18'1 0.8
2016-Apr-25 18:34N 51°28' E 000°19'5 5.3
2016-Apr-25 17:33N 51°29' E 000°27'7 6.9
2016-Apr-25 16:33N 51°30' E 000°38'8 8.0
2016-Apr-25 15:33N 51°30' E 000°51'8 8.5
2016-Apr-25 14:33N 51°30' E 001°05'1010.4
2016-Apr-25 13:33N 51°29' E 001°21'1110.7
2016-Apr-25 12:33N 51°22' E 001°34'10 9.8
2016-Apr-25 11:33N 51°12' E 001°39'7 6.8
2016-Apr-25 10:33N 51°06' E 001°39'8 7.5
2016-Apr-25 09:33N 50°60' E 001°32'73 8.1
2016-Apr-25 00:31N 50°19' W 000°05'21010.0
2016-Apr-24 03:33N 48°47' W 004°55'1111.3
2016-Apr-24 02:33N 48°41' W 005°09'  
Track history (hours):
 
Tides and Currents Weather Stations Pressure Air Temp Water Temp Dewpoint Dewpoint Depression Visibility Wind Speed Wind Dir Waves Ship Positions

Wilson Lista

Last reported at 2016-May-03 19:31 UTC. Time now 2016-May-04 06:00 UTC.
Position N 63°49' E 011°03'.

Length 88 m; draft 3.7 m.

Type: Cargo ship. MMSI: 314188000.

Date/timePositionNaut miles runAvg speedWind from/ knotsBaromVisibWave heightAir tempDewpointWater temp
2016-May-03 19:31N 63°49' E 011°03'9 9.2
2016-May-03 18:34N 63°42' E 010°51'9 9.4
2016-May-03 17:34N 63°36' E 010°34'9 9.5
2016-May-03 16:34N 63°31' E 010°16'9 9.0
2016-May-03 15:33N 63°30' E 009°56'11 8.0
2016-May-03 14:08N 63°39' E 009°40'5 8.2
2016-May-03 13:33N 63°38' E 009°30'6 0.5
2016-May-03 01:04N 63°44' E 009°32'5 9.9
2016-May-03 00:34N 63°39' E 009°29'9 8.7
2016-May-02 23:33N 63°32' E 009°15'  
2016-Apr-30 09:30N 54°16' E 005°06'1010.5
2016-Apr-30 08:33N 54°06' E 005°07'1310.8
2016-Apr-30 07:19N 53°53' E 004°59'910.9
2016-Apr-30 06:29N 53°45' E 004°54'9410.4
2016-Apr-29 21:30N 52°19' E 003°52'1111.3
2016-Apr-29 20:33N 52°08' E 003°55'1010.4
2016-Apr-29 19:33N 51°59' E 004°03'10 9.8
2016-Apr-29 18:33N 51°54' E 004°17'5 4.7
2016-Apr-29 17:29N 51°54' E 004°25'0 0.0
2016-Apr-29 16:32N 51°54' E 004°25'0 0.0
2016-Apr-29 15:33N 51°54' E 004°25'0 0.0
2016-Apr-29 14:34N 51°54' E 004°25'0 0.0
2016-Apr-29 13:33N 51°54' E 004°25'0 0.0
2016-Apr-29 12:33N 51°54' E 004°25'0 0.0
2016-Apr-29 11:33N 51°54' E 004°25'0 0.0
2016-Apr-29 10:33N 51°54' E 004°25'0 0.0
2016-Apr-29 09:33N 51°54' E 004°25'0 0.0
2016-Apr-29 08:34N 51°54' E 004°25'0 0.1
2016-Apr-29 07:33N 51°54' E 004°25'10 9.9
2016-Apr-29 06:33N 51°57' E 004°10'1211.6
2016-Apr-29 05:33N 51°60' E 003°51'64 9.0
2016-Apr-28 22:22N 51°32' E 002°18'8 9.9
2016-Apr-28 21:33N 51°26' E 002°09'9 8.7
2016-Apr-28 20:34N 51°24' E 001°56'1110.6
2016-Apr-28 19:33N 51°28' E 001°40'1212.1
2016-Apr-28 18:33N 51°29' E 001°20'1412.6
2016-Apr-28 17:27N 51°29' E 000°58'1011.0
2016-Apr-28 16:33N 51°30' E 000°42'9 9.5
2016-Apr-28 15:34N 51°28' E 000°27'6 6.0
2016-Apr-28 14:34N 51°28' E 000°18'0 0.0
2016-Apr-28 13:34N 51°28' E 000°18'0 0.0
2016-Apr-28 12:34N 51°28' E 000°18'0 0.0
2016-Apr-28 11:34N 51°28' E 000°18'0 0.0
2016-Apr-28 10:34N 51°28' E 000°18'0 0.0
2016-Apr-28 09:34N 51°28' E 000°18'0 0.0
2016-Apr-28 08:34N 51°28' E 000°18'0 0.0
2016-Apr-28 07:34N 51°28' E 000°18'0 0.0
2016-Apr-28 06:34N 51°28' E 000°18'0 0.0
2016-Apr-28 05:34N 51°28' E 000°18'0 0.0
2016-Apr-28 04:34N 51°28' E 000°18'0 0.0
2016-Apr-28 03:34N 51°28' E 000°18'0 0.0
2016-Apr-28 02:34N 51°28' E 000°18'0 0.0
2016-Apr-28 01:34N 51°28' E 000°18'0 0.0
2016-Apr-28 00:34N 51°28' E 000°18'0 0.0
2016-Apr-27 23:34N 51°28' E 000°18'0 0.0
2016-Apr-27 22:33N 51°28' E 000°18'0 0.0
2016-Apr-27 21:34N 51°28' E 000°18'0 0.0
2016-Apr-27 20:34N 51°28' E 000°18'0 0.0
2016-Apr-27 19:34N 51°28' E 000°18'0 0.0
2016-Apr-27 18:34N 51°28' E 000°18'0 0.0
2016-Apr-27 17:34N 51°28' E 000°18'0 0.0
2016-Apr-27 16:34N 51°28' E 000°18'0 0.0
2016-Apr-27 15:34N 51°28' E 000°18'0 0.0
2016-Apr-27 14:34N 51°28' E 000°18'0 0.0
2016-Apr-27 13:34N 51°28' E 000°18'0 0.0
2016-Apr-27 12:34N 51°28' E 000°18'0 0.0
2016-Apr-27 11:34N 51°28' E 000°18'0 0.0
2016-Apr-27 10:33N 51°28' E 000°18'0 0.0
2016-Apr-27 09:33N 51°28' E 000°18'0 0.0
2016-Apr-27 08:33N 51°28' E 000°18'0 0.0
2016-Apr-27 07:33N 51°28' E 000°18'0 0.0
2016-Apr-27 06:33N 51°28' E 000°18'0 0.0
2016-Apr-27 05:33N 51°28' E 000°18'0 0.0
2016-Apr-27 04:33N 51°28' E 000°18'0 0.0
2016-Apr-27 03:33N 51°28' E 000°18'0 0.0
2016-Apr-27 02:33N 51°28' E 000°18'0 0.0
2016-Apr-27 01:33N 51°28' E 000°18'0 0.0
2016-Apr-27 00:33N 51°28' E 000°18'0 0.0
2016-Apr-26 23:33N 51°28' E 000°18'0 0.0
2016-Apr-26 22:33N 51°28' E 000°18'0 0.0
2016-Apr-26 21:33N 51°28' E 000°18'0 0.0
2016-Apr-26 20:33N 51°28' E 000°18'0 0.0
2016-Apr-26 19:34N 51°28' E 000°18'0 0.0
2016-Apr-26 18:33N 51°28' E 000°18'0 0.0
2016-Apr-26 17:33N 51°28' E 000°18'0 0.0
2016-Apr-26 16:33N 51°28' E 000°18'0 0.0
2016-Apr-26 15:33N 51°28' E 000°18'0 0.0
2016-Apr-26 14:34N 51°28' E 000°18'0 0.0
2016-Apr-26 13:33N 51°28' E 000°18'0 0.0
2016-Apr-26 12:34N 51°28' E 000°18'0 0.0
2016-Apr-26 11:33N 51°28' E 000°18'0 0.0
2016-Apr-26 10:33N 51°28' E 000°18'0 0.0
2016-Apr-26 09:34N 51°28' E 000°18'0 0.0
2016-Apr-26 08:33N 51°28' E 000°18'0 0.0
2016-Apr-26 07:33N 51°28' E 000°18'0 0.0
2016-Apr-26 06:33N 51°28' E 000°18'0 0.0
2016-Apr-26 05:34N 51°28' E 000°18'0 0.0
2016-Apr-26 04:33N 51°28' E 000°18'0 0.0
2016-Apr-26 03:33N 51°28' E 000°18'0 0.0
2016-Apr-26 02:33N 51°28' E 000°18'0 0.0
2016-Apr-26 01:33N 51°28' E 000°18'0 0.0
2016-Apr-26 00:33N 51°28' E 000°18'0 0.0
2016-Apr-25 23:34N 51°28' E 000°18'0 0.0
2016-Apr-25 22:33N 51°28' E 000°18'0 0.0
2016-Apr-25 21:34N 51°28' E 000°18'0 0.0
2016-Apr-25 20:34N 51°28' E 000°18'0 0.0
2016-Apr-25 19:34N 51°28' E 000°18'1 0.8
2016-Apr-25 18:34N 51°28' E 000°19'5 5.3
2016-Apr-25 17:33N 51°29' E 000°27'7 6.9
2016-Apr-25 16:33N 51°30' E 000°38'8 8.0
2016-Apr-25 15:33N 51°30' E 000°51'8 8.5
2016-Apr-25 14:33N 51°30' E 001°05'1010.4
2016-Apr-25 13:33N 51°29' E 001°21'1110.7
2016-Apr-25 12:33N 51°22' E 001°34'10 9.8
2016-Apr-25 11:33N 51°12' E 001°39'7 6.8
2016-Apr-25 10:33N 51°06' E 001°39'8 7.5
2016-Apr-25 09:33N 50°60' E 001°32'73 8.1
2016-Apr-25 00:31N 50°19' W 000°05'21010.0
2016-Apr-24 03:33N 48°47' W 004°55'1111.3
2016-Apr-24 02:33N 48°41' W 005°09'  

Dump ship's entire track history